sensor_id;sensor_type;location;lat;lon;timestamp;P1;durP1;ratioP1;P2;durP2;ratioP2
47531;SDS011;33273;52.254;7.988;2022-10-15T00:01:53;36.73;;;19.73;;
47531;SDS011;33273;52.254;7.988;2022-10-15T00:04:19;43.50;;;23.27;;
47531;SDS011;33273;52.254;7.988;2022-10-15T00:06:45;34.17;;;20.93;;
47531;SDS011;33273;52.254;7.988;2022-10-15T00:09:11;39.75;;;22.83;;
47531;SDS011;33273;52.254;7.988;2022-10-15T00:11:37;41.23;;;22.90;;
47531;SDS011;33273;52.254;7.988;2022-10-15T00:14:04;41.80;;;23.25;;
47531;SDS011;33273;52.254;7.988;2022-10-15T00:16:30;42.20;;;22.13;;
47531;SDS011;33273;52.254;7.988;2022-10-15T00:18:58;37.90;;;21.30;;
47531;SDS011;33273;52.254;7.988;2022-10-15T00:23:50;39.08;;;21.45;;
47531;SDS011;33273;52.254;7.988;2022-10-15T00:26:21;39.65;;;23.25;;
47531;SDS011;33273;52.254;7.988;2022-10-15T00:28:52;46.00;;;22.67;;
47531;SDS011;33273;52.254;7.988;2022-10-15T00:31:24;37.90;;;21.92;;
47531;SDS011;33273;52.254;7.988;2022-10-15T00:33:53;36.80;;;22.50;;
47531;SDS011;33273;52.254;7.988;2022-10-15T00:36:23;39.35;;;22.33;;
47531;SDS011;33273;52.254;7.988;2022-10-15T00:38:51;36.45;;;20.77;;
47531;SDS011;33273;52.254;7.988;2022-10-15T00:41:19;40.40;;;21.60;;
47531;SDS011;33273;52.254;7.988;2022-10-15T00:43:53;42.33;;;22.65;;
47531;SDS011;33273;52.254;7.988;2022-10-15T00:51:36;40.55;;;21.60;;
47531;SDS011;33273;52.254;7.988;2022-10-15T00:54:08;38.10;;;21.50;;
47531;SDS011;33273;52.254;7.988;2022-10-15T00:56:35;39.22;;;21.30;;
47531;SDS011;33273;52.254;7.988;2022-10-15T00:59:04;34.35;;;19.08;;
47531;SDS011;33273;52.254;7.988;2022-10-15T01:03:57;37.63;;;20.27;;
47531;SDS011;33273;52.254;7.988;2022-10-15T01:06:26;40.05;;;22.13;;
47531;SDS011;33273;52.254;7.988;2022-10-15T01:08:53;40.15;;;22.58;;
47531;SDS011;33273;52.254;7.988;2022-10-15T01:14:01;41.88;;;21.27;;
47531;SDS011;33273;52.254;7.988;2022-10-15T01:28:00;53.00;;;25.75;;
47531;SDS011;33273;52.254;7.988;2022-10-15T01:31:21;45.10;;;22.55;;
47531;SDS011;33273;52.254;7.988;2022-10-15T01:34:01;52.05;;;24.38;;
47531;SDS011;33273;52.254;7.988;2022-10-15T01:36:39;53.25;;;25.55;;
47531;SDS011;33273;52.254;7.988;2022-10-15T01:39:22;53.13;;;24.85;;
47531;SDS011;33273;52.254;7.988;2022-10-15T01:42:16;53.50;;;26.13;;
47531;SDS011;33273;52.254;7.988;2022-10-15T01:44:49;53.13;;;26.42;;
47531;SDS011;33273;52.254;7.988;2022-10-15T01:47:51;54.47;;;24.45;;
47531;SDS011;33273;52.254;7.988;2022-10-15T01:50:23;49.97;;;25.38;;
47531;SDS011;33273;52.254;7.988;2022-10-15T01:52:51;52.78;;;23.95;;
47531;SDS011;33273;52.254;7.988;2022-10-15T01:55:20;51.95;;;25.80;;
47531;SDS011;33273;52.254;7.988;2022-10-15T01:57:48;51.90;;;25.05;;
47531;SDS011;33273;52.254;7.988;2022-10-15T02:00:15;56.40;;;26.45;;
47531;SDS011;33273;52.254;7.988;2022-10-15T02:02:42;61.85;;;25.63;;
47531;SDS011;33273;52.254;7.988;2022-10-15T02:05:14;51.78;;;25.15;;
47531;SDS011;33273;52.254;7.988;2022-10-15T02:10:54;51.22;;;25.63;;
47531;SDS011;33273;52.254;7.988;2022-10-15T02:24:20;55.38;;;25.67;;
47531;SDS011;33273;52.254;7.988;2022-10-15T02:26:54;53.38;;;26.20;;
47531;SDS011;33273;52.254;7.988;2022-10-15T02:29:24;56.03;;;27.60;;
47531;SDS011;33273;52.254;7.988;2022-10-15T02:31:55;54.00;;;26.33;;
47531;SDS011;33273;52.254;7.988;2022-10-15T02:34:24;50.30;;;23.88;;
47531;SDS011;33273;52.254;7.988;2022-10-15T02:36:52;54.28;;;26.48;;
47531;SDS011;33273;52.254;7.988;2022-10-15T02:39:21;49.75;;;25.15;;
47531;SDS011;33273;52.254;7.988;2022-10-15T02:41:50;46.95;;;24.08;;
47531;SDS011;33273;52.254;7.988;2022-10-15T02:44:17;48.03;;;23.50;;
47531;SDS011;33273;52.254;7.988;2022-10-15T02:46:44;50.60;;;23.55;;
47531;SDS011;33273;52.254;7.988;2022-10-15T02:49:11;44.75;;;22.95;;
47531;SDS011;33273;52.254;7.988;2022-10-15T02:51:37;45.05;;;23.90;;
47531;SDS011;33273;52.254;7.988;2022-10-15T02:54:04;50.97;;;23.80;;
47531;SDS011;33273;52.254;7.988;2022-10-15T02:56:31;47.80;;;24.23;;
47531;SDS011;33273;52.254;7.988;2022-10-15T02:58:58;50.60;;;24.00;;
47531;SDS011;33273;52.254;7.988;2022-10-15T03:01:24;48.58;;;23.83;;
47531;SDS011;33273;52.254;7.988;2022-10-15T03:06:18;43.30;;;22.00;;
47531;SDS011;33273;52.254;7.988;2022-10-15T03:08:45;47.35;;;22.88;;
47531;SDS011;33273;52.254;7.988;2022-10-15T03:11:11;49.10;;;24.33;;
47531;SDS011;33273;52.254;7.988;2022-10-15T03:13:38;52.30;;;25.00;;
47531;SDS011;33273;52.254;7.988;2022-10-15T03:16:07;48.08;;;24.70;;
47531;SDS011;33273;52.254;7.988;2022-10-15T03:18:35;53.00;;;24.77;;
47531;SDS011;33273;52.254;7.988;2022-10-15T03:21:02;49.35;;;24.60;;
47531;SDS011;33273;52.254;7.988;2022-10-15T03:23:29;47.67;;;24.40;;
47531;SDS011;33273;52.254;7.988;2022-10-15T03:26:05;45.67;;;23.13;;
47531;SDS011;33273;52.254;7.988;2022-10-15T03:28:32;51.10;;;23.52;;
47531;SDS011;33273;52.254;7.988;2022-10-15T03:31:00;45.58;;;23.42;;
47531;SDS011;33273;52.254;7.988;2022-10-15T03:33:26;45.13;;;23.03;;
47531;SDS011;33273;52.254;7.988;2022-10-15T03:35:54;51.88;;;23.80;;
47531;SDS011;33273;52.254;7.988;2022-10-15T03:38:21;45.70;;;23.48;;
47531;SDS011;33273;52.254;7.988;2022-10-15T03:40:50;43.80;;;22.85;;
47531;SDS011;33273;52.254;7.988;2022-10-15T03:43:26;46.45;;;23.45;;
47531;SDS011;33273;52.254;7.988;2022-10-15T03:45:53;45.95;;;21.10;;
47531;SDS011;33273;52.254;7.988;2022-10-15T03:48:21;50.63;;;24.50;;
47531;SDS011;33273;52.254;7.988;2022-10-15T03:50:48;49.42;;;23.10;;
47531;SDS011;33273;52.254;7.988;2022-10-15T03:53:14;50.13;;;23.70;;
47531;SDS011;33273;52.254;7.988;2022-10-15T03:55:40;46.55;;;22.45;;
47531;SDS011;33273;52.254;7.988;2022-10-15T03:58:08;50.08;;;24.17;;
47531;SDS011;33273;52.254;7.988;2022-10-15T04:00:41;50.22;;;25.00;;
47531;SDS011;33273;52.254;7.988;2022-10-15T04:03:09;48.75;;;23.70;;
47531;SDS011;33273;52.254;7.988;2022-10-15T04:05:35;54.42;;;25.77;;
47531;SDS011;33273;52.254;7.988;2022-10-15T04:08:04;52.03;;;24.52;;
47531;SDS011;33273;52.254;7.988;2022-10-15T04:10:36;51.15;;;25.05;;
47531;SDS011;33273;52.254;7.988;2022-10-15T04:13:02;49.00;;;24.73;;
47531;SDS011;33273;52.254;7.988;2022-10-15T04:15:31;50.47;;;24.13;;
47531;SDS011;33273;52.254;7.988;2022-10-15T04:18:02;52.20;;;24.35;;
47531;SDS011;33273;52.254;7.988;2022-10-15T04:20:29;50.17;;;25.23;;
47531;SDS011;33273;52.254;7.988;2022-10-15T04:23:07;56.28;;;24.92;;
47531;SDS011;33273;52.254;7.988;2022-10-15T04:25:35;53.55;;;25.42;;
47531;SDS011;33273;52.254;7.988;2022-10-15T04:28:01;54.55;;;25.13;;
47531;SDS011;33273;52.254;7.988;2022-10-15T04:30:28;44.50;;;23.38;;
47531;SDS011;33273;52.254;7.988;2022-10-15T04:32:58;48.55;;;24.27;;
47531;SDS011;33273;52.254;7.988;2022-10-15T04:35:24;44.30;;;23.25;;
47531;SDS011;33273;52.254;7.988;2022-10-15T04:38:12;53.85;;;24.70;;
47531;SDS011;33273;52.254;7.988;2022-10-15T04:40:59;52.60;;;24.63;;
47531;SDS011;33273;52.254;7.988;2022-10-15T04:44:04;53.28;;;24.10;;
47531;SDS011;33273;52.254;7.988;2022-10-15T04:46:31;50.78;;;25.67;;
47531;SDS011;33273;52.254;7.988;2022-10-15T04:49:02;48.85;;;24.15;;
47531;SDS011;33273;52.254;7.988;2022-10-15T04:51:29;51.10;;;24.33;;
47531;SDS011;33273;52.254;7.988;2022-10-15T04:54:07;53.83;;;25.52;;
47531;SDS011;33273;52.254;7.988;2022-10-15T04:56:37;52.30;;;25.17;;
47531;SDS011;33273;52.254;7.988;2022-10-15T04:59:05;55.08;;;25.85;;
47531;SDS011;33273;52.254;7.988;2022-10-15T05:01:39;58.15;;;25.67;;
47531;SDS011;33273;52.254;7.988;2022-10-15T05:04:09;50.72;;;24.83;;
47531;SDS011;33273;52.254;7.988;2022-10-15T05:06:38;48.22;;;24.20;;
47531;SDS011;33273;52.254;7.988;2022-10-15T05:09:17;51.65;;;24.95;;
47531;SDS011;33273;52.254;7.988;2022-10-15T05:11:47;48.17;;;24.42;;
47531;SDS011;33273;52.254;7.988;2022-10-15T05:14:13;51.67;;;24.55;;
47531;SDS011;33273;52.254;7.988;2022-10-15T05:16:40;55.03;;;26.20;;
47531;SDS011;33273;52.254;7.988;2022-10-15T05:19:09;54.25;;;24.92;;
47531;SDS011;33273;52.254;7.988;2022-10-15T05:21:37;50.80;;;25.27;;
47531;SDS011;33273;52.254;7.988;2022-10-15T05:24:11;52.08;;;24.13;;
47531;SDS011;33273;52.254;7.988;2022-10-15T05:26:57;46.58;;;23.38;;
47531;SDS011;33273;52.254;7.988;2022-10-15T05:29:25;61.83;;;26.33;;
47531;SDS011;33273;52.254;7.988;2022-10-15T05:31:52;46.72;;;24.23;;
47531;SDS011;33273;52.254;7.988;2022-10-15T05:34:21;50.13;;;26.80;;
47531;SDS011;33273;52.254;7.988;2022-10-15T05:36:56;54.42;;;26.92;;
47531;SDS011;33273;52.254;7.988;2022-10-15T05:39:22;51.77;;;26.03;;
47531;SDS011;33273;52.254;7.988;2022-10-15T05:41:49;43.83;;;22.55;;
47531;SDS011;33273;52.254;7.988;2022-10-15T05:44:15;50.63;;;25.23;;
47531;SDS011;33273;52.254;7.988;2022-10-15T05:46:41;45.33;;;24.10;;
47531;SDS011;33273;52.254;7.988;2022-10-15T05:49:10;48.60;;;23.45;;
47531;SDS011;33273;52.254;7.988;2022-10-15T05:51:47;44.10;;;22.73;;
47531;SDS011;33273;52.254;7.988;2022-10-15T05:54:22;42.28;;;21.48;;
47531;SDS011;33273;52.254;7.988;2022-10-15T05:56:49;42.05;;;21.80;;
47531;SDS011;33273;52.254;7.988;2022-10-15T05:59:15;46.17;;;22.43;;
47531;SDS011;33273;52.254;7.988;2022-10-15T06:01:41;40.17;;;21.90;;
47531;SDS011;33273;52.254;7.988;2022-10-15T06:04:07;42.83;;;21.67;;
47531;SDS011;33273;52.254;7.988;2022-10-15T06:06:38;40.25;;;21.98;;
47531;SDS011;33273;52.254;7.988;2022-10-15T06:09:04;36.95;;;21.63;;
47531;SDS011;33273;52.254;7.988;2022-10-15T06:11:32;41.90;;;21.55;;
47531;SDS011;33273;52.254;7.988;2022-10-15T06:13:59;39.00;;;20.42;;
47531;SDS011;33273;52.254;7.988;2022-10-15T06:16:25;43.17;;;22.00;;
47531;SDS011;33273;52.254;7.988;2022-10-15T06:18:52;39.25;;;21.65;;
47531;SDS011;33273;52.254;7.988;2022-10-15T06:21:18;44.10;;;21.00;;
47531;SDS011;33273;52.254;7.988;2022-10-15T06:23:44;40.13;;;21.00;;
47531;SDS011;33273;52.254;7.988;2022-10-15T06:26:10;34.30;;;18.73;;
47531;SDS011;33273;52.254;7.988;2022-10-15T06:28:38;40.35;;;21.45;;
47531;SDS011;33273;52.254;7.988;2022-10-15T06:31:04;39.10;;;20.65;;
47531;SDS011;33273;52.254;7.988;2022-10-15T06:33:32;42.47;;;21.98;;
47531;SDS011;33273;52.254;7.988;2022-10-15T06:36:04;38.65;;;20.98;;
47531;SDS011;33273;52.254;7.988;2022-10-15T06:38:34;38.42;;;20.27;;
47531;SDS011;33273;52.254;7.988;2022-10-15T06:41:04;42.63;;;20.88;;
47531;SDS011;33273;52.254;7.988;2022-10-15T06:43:31;36.67;;;19.77;;
47531;SDS011;33273;52.254;7.988;2022-10-15T06:45:57;39.45;;;21.13;;
47531;SDS011;33273;52.254;7.988;2022-10-15T06:48:24;38.08;;;19.98;;
47531;SDS011;33273;52.254;7.988;2022-10-15T06:50:50;38.72;;;19.92;;
47531;SDS011;33273;52.254;7.988;2022-10-15T06:53:16;40.47;;;20.63;;
47531;SDS011;33273;52.254;7.988;2022-10-15T06:55:42;42.47;;;21.33;;
47531;SDS011;33273;52.254;7.988;2022-10-15T06:58:08;36.05;;;19.23;;
47531;SDS011;33273;52.254;7.988;2022-10-15T07:00:34;40.70;;;19.92;;
47531;SDS011;33273;52.254;7.988;2022-10-15T07:03:03;36.72;;;19.35;;
47531;SDS011;33273;52.254;7.988;2022-10-15T07:05:30;35.38;;;19.55;;
47531;SDS011;33273;52.254;7.988;2022-10-15T07:07:57;40.15;;;21.33;;
47531;SDS011;33273;52.254;7.988;2022-10-15T07:10:25;46.00;;;21.63;;
47531;SDS011;33273;52.254;7.988;2022-10-15T07:12:52;42.53;;;21.20;;
47531;SDS011;33273;52.254;7.988;2022-10-15T07:15:20;42.85;;;19.98;;
47531;SDS011;33273;52.254;7.988;2022-10-15T07:17:49;42.85;;;22.40;;
47531;SDS011;33273;52.254;7.988;2022-10-15T07:20:25;40.00;;;20.63;;
47531;SDS011;33273;52.254;7.988;2022-10-15T07:22:58;45.92;;;23.83;;
47531;SDS011;33273;52.254;7.988;2022-10-15T07:25:28;44.17;;;22.65;;
47531;SDS011;33273;52.254;7.988;2022-10-15T07:27:54;44.15;;;22.55;;
47531;SDS011;33273;52.254;7.988;2022-10-15T07:30:22;45.72;;;21.48;;
47531;SDS011;33273;52.254;7.988;2022-10-15T07:32:52;42.70;;;22.73;;
47531;SDS011;33273;52.254;7.988;2022-10-15T07:35:23;45.22;;;23.00;;
47531;SDS011;33273;52.254;7.988;2022-10-15T07:37:50;45.00;;;22.48;;
47531;SDS011;33273;52.254;7.988;2022-10-15T07:40:16;49.40;;;23.40;;
47531;SDS011;33273;52.254;7.988;2022-10-15T07:45:09;54.08;;;26.15;;
47531;SDS011;33273;52.254;7.988;2022-10-15T07:47:38;51.47;;;26.67;;
47531;SDS011;33273;52.254;7.988;2022-10-15T07:50:07;58.92;;;28.15;;
47531;SDS011;33273;52.254;7.988;2022-10-15T07:52:36;51.78;;;26.90;;
47531;SDS011;33273;52.254;7.988;2022-10-15T07:55:02;61.00;;;27.37;;
47531;SDS011;33273;52.254;7.988;2022-10-15T07:57:28;48.30;;;22.50;;
47531;SDS011;33273;52.254;7.988;2022-10-15T07:59:55;54.42;;;27.00;;
47531;SDS011;33273;52.254;7.988;2022-10-15T08:02:23;62.70;;;29.80;;
47531;SDS011;33273;52.254;7.988;2022-10-15T08:07:17;54.67;;;27.93;;
47531;SDS011;33273;52.254;7.988;2022-10-15T08:09:42;66.63;;;32.00;;
47531;SDS011;33273;52.254;7.988;2022-10-15T08:12:11;63.83;;;29.97;;
47531;SDS011;33273;52.254;7.988;2022-10-15T08:14:38;73.07;;;32.17;;
47531;SDS011;33273;52.254;7.988;2022-10-15T08:17:06;67.28;;;31.67;;
47531;SDS011;33273;52.254;7.988;2022-10-15T08:19:33;69.82;;;32.83;;
47531;SDS011;33273;52.254;7.988;2022-10-15T08:22:00;70.55;;;31.55;;
47531;SDS011;33273;52.254;7.988;2022-10-15T08:24:26;82.35;;;36.00;;
47531;SDS011;33273;52.254;7.988;2022-10-15T08:26:52;81.30;;;35.55;;
47531;SDS011;33273;52.254;7.988;2022-10-15T08:29:18;78.00;;;35.90;;
47531;SDS011;33273;52.254;7.988;2022-10-15T08:31:44;75.57;;;33.10;;
47531;SDS011;33273;52.254;7.988;2022-10-15T08:34:09;78.97;;;35.10;;
47531;SDS011;33273;52.254;7.988;2022-10-15T08:36:35;74.83;;;35.00;;
47531;SDS011;33273;52.254;7.988;2022-10-15T08:39:01;81.00;;;35.33;;
47531;SDS011;33273;52.254;7.988;2022-10-15T08:43:53;80.67;;;37.57;;
47531;SDS011;33273;52.254;7.988;2022-10-15T08:46:24;83.85;;;37.20;;
47531;SDS011;33273;52.254;7.988;2022-10-15T08:48:57;94.68;;;38.78;;
47531;SDS011;33273;52.254;7.988;2022-10-15T08:51:40;80.15;;;33.03;;
47531;SDS011;33273;52.254;7.988;2022-10-15T08:54:15;88.60;;;38.13;;
47531;SDS011;33273;52.254;7.988;2022-10-15T08:56:52;91.38;;;39.15;;
47531;SDS011;33273;52.254;7.988;2022-10-15T09:02:17;89.03;;;37.85;;
47531;SDS011;33273;52.254;7.988;2022-10-15T09:10:58;71.35;;;36.50;;
47531;SDS011;33273;52.254;7.988;2022-10-15T09:13:38;74.07;;;34.47;;
47531;SDS011;33273;52.254;7.988;2022-10-15T09:16:26;64.80;;;33.30;;
47531;SDS011;33273;52.254;7.988;2022-10-15T09:18:55;64.35;;;30.88;;
47531;SDS011;33273;52.254;7.988;2022-10-15T09:21:25;62.10;;;31.95;;
47531;SDS011;33273;52.254;7.988;2022-10-15T09:23:57;61.55;;;33.92;;
47531;SDS011;33273;52.254;7.988;2022-10-15T09:26:28;58.67;;;32.45;;
47531;SDS011;33273;52.254;7.988;2022-10-15T09:29:10;59.92;;;32.33;;
47531;SDS011;33273;52.254;7.988;2022-10-15T09:34:38;52.50;;;30.80;;
47531;SDS011;33273;52.254;7.988;2022-10-15T09:37:17;51.50;;;26.88;;
47531;SDS011;33273;52.254;7.988;2022-10-15T09:42:39;50.42;;;29.30;;
47531;SDS011;33273;52.254;7.988;2022-10-15T09:45:11;46.47;;;27.02;;
47531;SDS011;33273;52.254;7.988;2022-10-15T09:47:39;45.45;;;26.88;;
47531;SDS011;33273;52.254;7.988;2022-10-15T09:50:08;48.40;;;26.92;;
47531;SDS011;33273;52.254;7.988;2022-10-15T09:57:54;44.38;;;25.65;;
47531;SDS011;33273;52.254;7.988;2022-10-15T10:00:23;41.25;;;26.10;;
47531;SDS011;33273;52.254;7.988;2022-10-15T10:03:03;40.20;;;24.55;;
47531;SDS011;33273;52.254;7.988;2022-10-15T10:05:32;37.33;;;24.52;;
47531;SDS011;33273;52.254;7.988;2022-10-15T10:08:15;38.97;;;23.33;;
47531;SDS011;33273;52.254;7.988;2022-10-15T10:10:53;35.67;;;22.17;;
47531;SDS011;33273;52.254;7.988;2022-10-15T10:13:24;38.50;;;21.20;;
47531;SDS011;33273;52.254;7.988;2022-10-15T10:15:55;33.15;;;21.30;;
47531;SDS011;33273;52.254;7.988;2022-10-15T10:18:28;33.83;;;20.63;;
47531;SDS011;33273;52.254;7.988;2022-10-15T10:20:56;33.17;;;22.02;;
47531;SDS011;33273;52.254;7.988;2022-10-15T10:25:59;27.45;;;19.85;;
47531;SDS011;33273;52.254;7.988;2022-10-15T10:31:03;32.88;;;21.27;;
47531;SDS011;33273;52.254;7.988;2022-10-15T10:36:20;31.50;;;21.58;;
47531;SDS011;33273;52.254;7.988;2022-10-15T10:39:17;31.33;;;20.30;;
47531;SDS011;33273;52.254;7.988;2022-10-15T10:44:32;29.95;;;19.17;;
47531;SDS011;33273;52.254;7.988;2022-10-15T10:49:49;26.98;;;18.65;;
47531;SDS011;33273;52.254;7.988;2022-10-15T10:57:43;28.48;;;19.35;;
47531;SDS011;33273;52.254;7.988;2022-10-15T11:00:20;27.33;;;19.08;;
47531;SDS011;33273;52.254;7.988;2022-10-15T11:02:59;25.63;;;17.80;;
47531;SDS011;33273;52.254;7.988;2022-10-15T11:05:27;23.58;;;17.27;;
47531;SDS011;33273;52.254;7.988;2022-10-15T11:10:47;21.70;;;15.30;;
47531;SDS011;33273;52.254;7.988;2022-10-15T11:16:40;20.00;;;13.45;;
47531;SDS011;33273;52.254;7.988;2022-10-15T11:19:20;18.30;;;11.60;;
47531;SDS011;33273;52.254;7.988;2022-10-15T11:22:31;17.17;;;11.73;;
47531;SDS011;33273;52.254;7.988;2022-10-15T11:25:33;18.00;;;10.68;;
47531;SDS011;33273;52.254;7.988;2022-10-15T11:39:31;14.48;;;9.93;;
47531;SDS011;33273;52.254;7.988;2022-10-15T11:43:02;16.60;;;11.18;;
47531;SDS011;33273;52.254;7.988;2022-10-15T11:46:06;14.35;;;10.00;;
47531;SDS011;33273;52.254;7.988;2022-10-15T11:51:19;12.48;;;8.25;;
47531;SDS011;33273;52.254;7.988;2022-10-15T11:54:01;12.32;;;8.68;;
47531;SDS011;33273;52.254;7.988;2022-10-15T11:56:31;12.95;;;8.73;;
47531;SDS011;33273;52.254;7.988;2022-10-15T12:01:53;12.48;;;8.25;;
47531;SDS011;33273;52.254;7.988;2022-10-15T12:07:15;10.32;;;7.03;;
47531;SDS011;33273;52.254;7.988;2022-10-15T12:09:47;10.93;;;7.18;;
47531;SDS011;33273;52.254;7.988;2022-10-15T12:12:23;9.15;;;6.63;;
47531;SDS011;33273;52.254;7.988;2022-10-15T12:20:42;10.10;;;6.32;;
47531;SDS011;33273;52.254;7.988;2022-10-15T12:26:23;7.70;;;5.22;;
47531;SDS011;33273;52.254;7.988;2022-10-15T12:28:52;7.93;;;5.57;;
47531;SDS011;33273;52.254;7.988;2022-10-15T12:31:22;7.20;;;5.05;;
47531;SDS011;33273;52.254;7.988;2022-10-15T12:33:55;7.57;;;4.68;;
47531;SDS011;33273;52.254;7.988;2022-10-15T12:36:23;7.70;;;5.05;;
47531;SDS011;33273;52.254;7.988;2022-10-15T12:39:20;7.32;;;5.20;;
47531;SDS011;33273;52.254;7.988;2022-10-15T12:41:49;6.53;;;4.70;;
47531;SDS011;33273;52.254;7.988;2022-10-15T12:46:47;7.32;;;4.43;;
47531;SDS011;33273;52.254;7.988;2022-10-15T12:51:53;6.63;;;4.55;;
47531;SDS011;33273;52.254;7.988;2022-10-15T13:00:00;5.78;;;4.13;;
47531;SDS011;33273;52.254;7.988;2022-10-15T13:02:37;6.35;;;4.00;;
47531;SDS011;33273;52.254;7.988;2022-10-15T13:05:07;6.90;;;3.85;;
47531;SDS011;33273;52.254;7.988;2022-10-15T13:07:51;5.45;;;3.40;;
47531;SDS011;33273;52.254;7.988;2022-10-15T13:10:32;5.65;;;3.28;;
47531;SDS011;33273;52.254;7.988;2022-10-15T13:13:03;4.68;;;2.97;;
47531;SDS011;33273;52.254;7.988;2022-10-15T13:15:31;4.63;;;2.63;;
47531;SDS011;33273;52.254;7.988;2022-10-15T13:18:03;8.23;;;2.90;;
47531;SDS011;33273;52.254;7.988;2022-10-15T13:20:39;3.65;;;2.08;;
47531;SDS011;33273;52.254;7.988;2022-10-15T13:23:18;3.45;;;1.90;;
47531;SDS011;33273;52.254;7.988;2022-10-15T13:25:49;3.47;;;1.75;;
47531;SDS011;33273;52.254;7.988;2022-10-15T13:31:01;3.80;;;1.50;;
47531;SDS011;33273;52.254;7.988;2022-10-15T13:33:29;2.75;;;1.63;;
47531;SDS011;33273;52.254;7.988;2022-10-15T13:36:03;1.92;;;1.45;;
47531;SDS011;33273;52.254;7.988;2022-10-15T13:38:30;3.47;;;1.83;;
47531;SDS011;33273;52.254;7.988;2022-10-15T13:43:24;2.80;;;1.70;;
47531;SDS011;33273;52.254;7.988;2022-10-15T13:45:57;4.88;;;1.70;;
47531;SDS011;33273;52.254;7.988;2022-10-15T13:48:25;2.90;;;1.48;;
47531;SDS011;33273;52.254;7.988;2022-10-15T13:50:53;3.67;;;1.70;;
47531;SDS011;33273;52.254;7.988;2022-10-15T13:53:25;2.38;;;1.65;;
47531;SDS011;33273;52.254;7.988;2022-10-15T13:55:56;2.85;;;1.60;;
47531;SDS011;33273;52.254;7.988;2022-10-15T13:58:29;2.47;;;1.40;;
47531;SDS011;33273;52.254;7.988;2022-10-15T14:00:59;3.25;;;1.55;;
47531;SDS011;33273;52.254;7.988;2022-10-15T14:03:32;3.00;;;1.65;;
47531;SDS011;33273;52.254;7.988;2022-10-15T14:06:17;2.30;;;1.67;;
47531;SDS011;33273;52.254;7.988;2022-10-15T14:08:47;4.82;;;1.80;;
47531;SDS011;33273;52.254;7.988;2022-10-15T14:11:15;3.55;;;1.80;;
47531;SDS011;33273;52.254;7.988;2022-10-15T14:13:47;2.33;;;1.60;;
47531;SDS011;33273;52.254;7.988;2022-10-15T14:19:09;4.13;;;1.80;;
47531;SDS011;33273;52.254;7.988;2022-10-15T14:21:43;3.30;;;1.70;;
47531;SDS011;33273;52.254;7.988;2022-10-15T14:24:19;2.47;;;1.73;;
47531;SDS011;33273;52.254;7.988;2022-10-15T14:26:46;2.85;;;1.92;;
47531;SDS011;33273;52.254;7.988;2022-10-15T14:29:36;2.67;;;1.95;;
47531;SDS011;33273;52.254;7.988;2022-10-15T14:32:26;4.03;;;1.90;;
47531;SDS011;33273;52.254;7.988;2022-10-15T14:34:57;2.65;;;1.77;;
47531;SDS011;33273;52.254;7.988;2022-10-15T14:40:19;2.95;;;2.00;;
47531;SDS011;33273;52.254;7.988;2022-10-15T14:43:00;3.35;;;2.10;;
47531;SDS011;33273;52.254;7.988;2022-10-15T14:45:39;3.40;;;2.40;;
47531;SDS011;33273;52.254;7.988;2022-10-15T14:48:20;3.00;;;2.00;;
47531;SDS011;33273;52.254;7.988;2022-10-15T14:50:55;3.33;;;2.35;;
47531;SDS011;33273;52.254;7.988;2022-10-15T14:53:27;2.08;;;1.60;;
47531;SDS011;33273;52.254;7.988;2022-10-15T14:55:57;3.45;;;2.13;;
47531;SDS011;33273;52.254;7.988;2022-10-15T14:58:26;2.50;;;1.90;;
47531;SDS011;33273;52.254;7.988;2022-10-15T15:01:00;2.90;;;2.15;;
47531;SDS011;33273;52.254;7.988;2022-10-15T15:03:30;3.10;;;2.40;;
47531;SDS011;33273;52.254;7.988;2022-10-15T15:06:03;3.15;;;2.10;;
47531;SDS011;33273;52.254;7.988;2022-10-15T15:08:30;4.63;;;2.28;;
47531;SDS011;33273;52.254;7.988;2022-10-15T15:10:58;3.15;;;2.30;;
47531;SDS011;33273;52.254;7.988;2022-10-15T15:13:27;2.97;;;2.25;;
47531;SDS011;33273;52.254;7.988;2022-10-15T15:15:57;3.80;;;2.33;;
47531;SDS011;33273;52.254;7.988;2022-10-15T15:18:23;4.20;;;2.35;;
47531;SDS011;33273;52.254;7.988;2022-10-15T15:20:49;3.00;;;2.35;;
47531;SDS011;33273;52.254;7.988;2022-10-15T15:23:19;3.60;;;2.58;;
47531;SDS011;33273;52.254;7.988;2022-10-15T15:25:48;7.00;;;3.00;;
47531;SDS011;33273;52.254;7.988;2022-10-15T15:28:15;5.00;;;2.70;;
47531;SDS011;33273;52.254;7.988;2022-10-15T15:30:49;4.75;;;2.75;;
47531;SDS011;33273;52.254;7.988;2022-10-15T15:33:26;4.60;;;2.72;;
47531;SDS011;33273;52.254;7.988;2022-10-15T15:35:54;4.22;;;2.30;;
47531;SDS011;33273;52.254;7.988;2022-10-15T15:38:26;3.22;;;2.40;;
47531;SDS011;33273;52.254;7.988;2022-10-15T15:40:59;3.60;;;2.65;;
47531;SDS011;33273;52.254;7.988;2022-10-15T15:43:30;3.75;;;2.53;;
47531;SDS011;33273;52.254;7.988;2022-10-15T15:45:56;4.43;;;2.30;;
47531;SDS011;33273;52.254;7.988;2022-10-15T15:48:22;4.73;;;2.97;;
47531;SDS011;33273;52.254;7.988;2022-10-15T15:50:48;5.25;;;3.40;;
47531;SDS011;33273;52.254;7.988;2022-10-15T15:53:14;5.22;;;3.17;;
47531;SDS011;33273;52.254;7.988;2022-10-15T15:55:39;3.83;;;2.67;;
47531;SDS011;33273;52.254;7.988;2022-10-15T15:58:07;4.18;;;3.00;;
47531;SDS011;33273;52.254;7.988;2022-10-15T16:00:33;7.55;;;5.88;;
47531;SDS011;33273;52.254;7.988;2022-10-15T16:02:58;6.38;;;4.10;;
47531;SDS011;33273;52.254;7.988;2022-10-15T16:05:25;5.95;;;4.22;;
47531;SDS011;33273;52.254;7.988;2022-10-15T16:07:52;5.82;;;3.72;;
47531;SDS011;33273;52.254;7.988;2022-10-15T16:10:18;4.70;;;3.20;;
47531;SDS011;33273;52.254;7.988;2022-10-15T16:12:43;4.97;;;3.10;;
47531;SDS011;33273;52.254;7.988;2022-10-15T16:15:09;5.93;;;3.83;;
47531;SDS011;33273;52.254;7.988;2022-10-15T16:17:37;3.53;;;2.60;;
47531;SDS011;33273;52.254;7.988;2022-10-15T16:20:03;4.40;;;3.22;;
47531;SDS011;33273;52.254;7.988;2022-10-15T16:22:29;4.60;;;2.85;;
47531;SDS011;33273;52.254;7.988;2022-10-15T16:24:55;4.28;;;3.08;;
47531;SDS011;33273;52.254;7.988;2022-10-15T16:27:22;6.95;;;4.15;;
47531;SDS011;33273;52.254;7.988;2022-10-15T16:29:48;6.20;;;3.88;;
47531;SDS011;33273;52.254;7.988;2022-10-15T16:32:14;4.90;;;3.05;;
47531;SDS011;33273;52.254;7.988;2022-10-15T16:34:43;5.32;;;3.60;;
47531;SDS011;33273;52.254;7.988;2022-10-15T16:37:09;6.53;;;3.38;;
47531;SDS011;33273;52.254;7.988;2022-10-15T16:39:35;31.77;;;10.17;;
47531;SDS011;33273;52.254;7.988;2022-10-15T16:42:02;18.98;;;6.15;;
47531;SDS011;33273;52.254;7.988;2022-10-15T16:44:29;11.30;;;8.00;;
47531;SDS011;33273;52.254;7.988;2022-10-15T16:46:55;71.60;;;31.38;;
47531;SDS011;33273;52.254;7.988;2022-10-15T16:49:20;23.63;;;9.47;;
47531;SDS011;33273;52.254;7.988;2022-10-15T16:51:46;12.48;;;6.35;;
47531;SDS011;33273;52.254;7.988;2022-10-15T16:54:12;9.45;;;4.07;;
47531;SDS011;33273;52.254;7.988;2022-10-15T16:56:39;5.53;;;4.10;;
47531;SDS011;33273;52.254;7.988;2022-10-15T16:59:06;9.48;;;5.43;;
47531;SDS011;33273;52.254;7.988;2022-10-15T17:01:31;5.93;;;3.97;;
47531;SDS011;33273;52.254;7.988;2022-10-15T17:03:57;4.63;;;3.40;;
47531;SDS011;33273;52.254;7.988;2022-10-15T17:11:26;5.97;;;3.78;;
47531;SDS011;33273;52.254;7.988;2022-10-15T17:13:56;4.60;;;3.38;;
47531;SDS011;33273;52.254;7.988;2022-10-15T17:16:25;4.88;;;3.55;;
47531;SDS011;33273;52.254;7.988;2022-10-15T17:18:56;5.45;;;3.55;;